createdAt,value
2019-05-18T11:19:05.366Z,6.37
2019-05-18T11:21:54.385Z,6.30
2019-05-18T11:24:41.946Z,6.45
2019-05-18T11:27:29.546Z,6.15
2019-05-18T11:30:17.895Z,6.35
2019-05-18T11:33:59.296Z,6.20
2019-05-18T11:36:46.341Z,6.22
2019-05-18T11:39:33.644Z,6.22
2019-05-18T11:42:21.379Z,6.30
2019-05-18T11:45:14.698Z,6.22
2019-05-18T11:48:02.236Z,5.72
2019-05-18T11:50:49.282Z,6.03
2019-05-18T11:53:36.605Z,6.55
2019-05-18T11:56:23.965Z,6.22
2019-05-18T11:59:11.448Z,6.22
2019-05-18T12:01:59.417Z,5.87
2019-05-18T12:04:48.730Z,6.28
2019-05-18T12:07:36.040Z,5.85
2019-05-18T12:10:23.921Z,9.15
2019-05-18T12:13:14.765Z,5.78
2019-05-18T12:16:48.560Z,6.00
2019-05-18T12:19:48.980Z,6.10
2019-05-18T12:22:35.928Z,5.97
2019-05-18T12:25:24.416Z,5.50
2019-05-18T12:28:13.105Z,5.33
2019-05-18T12:31:02.256Z,5.40
2019-05-18T12:33:51.002Z,5.78
2019-05-18T12:36:39.718Z,5.53
2019-05-18T12:39:28.662Z,6.15
2019-05-18T12:42:17.253Z,5.53
2019-05-18T12:45:06.781Z,5.03
2019-05-18T12:47:55.704Z,5.45
2019-05-18T12:50:44.449Z,5.40
2019-05-18T12:53:33.538Z,4.83
2019-05-18T12:57:15.848Z,4.95
2019-05-18T13:00:07.497Z,5.70
2019-05-18T13:02:55.801Z,5.90
2019-05-18T13:05:44.170Z,5.22
2019-05-18T13:08:36.109Z,5.22
2019-05-18T13:11:24.573Z,5.85
2019-05-18T13:14:12.997Z,5.10
2019-05-18T13:17:07.755Z,5.33
2019-05-18T13:19:56.576Z,5.22
2019-05-18T13:22:45.338Z,5.35
2019-05-18T13:25:34.182Z,5.62
2019-05-18T13:28:22.554Z,5.30
2019-05-18T13:31:11.713Z,5.10
2019-05-18T13:34:00.006Z,4.80
2019-05-18T13:36:48.870Z,5.00
2019-05-18T13:39:37.889Z,4.70
2019-05-18T13:42:26.145Z,4.85
2019-05-18T13:45:15.193Z,4.10
2019-05-18T13:48:04.010Z,4.33
2019-05-18T13:50:52.551Z,4.20
2019-05-18T13:53:41.393Z,4.33
2019-05-18T13:56:29.912Z,4.40
2019-05-18T13:59:18.291Z,4.05
2019-05-18T14:02:07.131Z,3.98
2019-05-18T14:04:58.554Z,4.03
2019-05-18T14:07:57.620Z,4.17
2019-05-18T14:10:46.094Z,4.20
2019-05-18T14:13:34.344Z,4.05
2019-05-18T14:16:23.120Z,4.20
2019-05-18T14:19:12.195Z,4.20
2019-05-18T14:22:08.649Z,4.00
2019-05-18T14:24:58.485Z,3.95
2019-05-18T14:27:47.061Z,4.12
2019-05-18T14:30:35.667Z,4.22
2019-05-18T14:33:24.097Z,4.40
2019-05-18T14:36:12.857Z,4.55
2019-05-18T14:39:01.966Z,4.25
2019-05-18T14:41:52.008Z,4.30
2019-05-18T14:44:40.613Z,4.22
2019-05-18T14:47:29.446Z,3.98
2019-05-18T14:50:18.279Z,4.00
2019-05-18T14:53:06.843Z,4.78
2019-05-18T14:55:55.440Z,4.10
2019-05-18T14:58:44.116Z,4.05
2019-05-18T15:01:33.644Z,4.62
2019-05-18T15:04:22.388Z,4.72
2019-05-18T15:07:11.073Z,4.10
2019-05-18T15:09:59.914Z,4.47
2019-05-18T15:12:48.422Z,4.00
2019-05-18T15:15:37.105Z,4.17
2019-05-18T15:18:25.691Z,3.92
2019-05-18T15:21:14.051Z,4.17
2019-05-18T15:24:03.139Z,3.92
2019-05-18T15:26:52.049Z,3.80
2019-05-18T15:29:40.804Z,3.90
2019-05-18T15:32:29.388Z,3.70
2019-05-18T15:35:18.240Z,3.90
2019-05-18T15:38:06.835Z,4.15
2019-05-18T15:40:55.454Z,3.55
2019-05-18T15:43:44.106Z,3.70
2019-05-18T15:46:32.859Z,3.80
2019-05-18T15:49:21.740Z,3.90
2019-05-18T15:52:10.631Z,3.80
2019-05-18T15:54:59.374Z,4.12
2019-05-18T15:57:47.627Z,3.95
2019-05-18T16:00:35.847Z,3.90
2019-05-18T16:03:24.501Z,4.15
2019-05-18T16:06:13.023Z,4.03
2019-05-18T16:09:01.368Z,3.67
2019-05-18T16:11:51.417Z,3.98
2019-05-18T16:14:39.958Z,4.17
2019-05-18T16:17:39.017Z,3.98
2019-05-18T16:20:19.177Z,4.20
2019-05-18T16:23:08.265Z,4.30
2019-05-18T16:25:56.863Z,4.17
2019-05-18T16:28:45.614Z,4.20
2019-05-18T16:31:34.288Z,4.17
2019-05-18T16:34:22.727Z,4.10
2019-05-18T16:37:11.313Z,4.67
2019-05-18T16:40:00.322Z,4.17
2019-05-18T16:42:48.661Z,4.03
2019-05-18T16:45:37.060Z,4.25
2019-05-18T16:48:25.538Z,3.80
2019-05-18T16:51:13.969Z,4.42
2019-05-18T16:54:02.825Z,3.77
2019-05-18T16:56:51.640Z,3.85
2019-05-18T16:59:40.560Z,3.72
2019-05-18T17:02:32.058Z,4.08
2019-05-18T17:05:19.790Z,4.00
2019-05-18T17:08:08.476Z,4.08
2019-05-18T17:10:57.307Z,3.90
2019-05-18T17:13:45.686Z,4.58
2019-05-18T17:16:34.241Z,4.12
2019-05-18T17:19:23.093Z,4.05
2019-05-18T17:22:11.679Z,4.50
2019-05-18T17:25:00.747Z,4.80
2019-05-18T17:27:50.524Z,4.30
2019-05-18T17:30:42.496Z,4.03
2019-05-18T17:33:29.301Z,4.17
2019-05-18T17:36:19.683Z,4.37
2019-05-18T17:39:08.402Z,4.83
2019-05-18T17:41:57.165Z,4.75
2019-05-18T17:44:45.851Z,4.70
2019-05-18T17:47:34.435Z,4.72
2019-05-18T17:50:23.111Z,4.67
2019-05-18T17:53:11.617Z,4.80
2019-05-18T17:56:00.291Z,4.28
2019-05-18T17:58:48.532Z,4.08
2019-05-18T18:01:36.825Z,4.40
2019-05-18T18:04:25.273Z,4.47
2019-05-18T18:07:14.429Z,4.35
2019-05-18T18:10:02.679Z,4.83
2019-05-18T18:12:50.941Z,4.75
2019-05-18T18:15:39.299Z,4.78
2019-05-18T18:18:27.996Z,4.83
2019-05-18T18:21:16.579Z,5.30
2019-05-18T18:24:05.037Z,4.83
2019-05-18T18:26:53.766Z,4.72
2019-05-18T18:29:42.652Z,4.37
2019-05-18T18:32:32.675Z,4.47
2019-05-18T18:35:21.431Z,4.58
2019-05-18T18:38:10.113Z,4.47
2019-05-18T18:40:58.886Z,4.72
2019-05-18T18:43:47.777Z,4.37
2019-05-18T18:46:36.619Z,4.22
2019-05-18T18:49:25.726Z,4.72
2019-05-18T18:52:13.976Z,4.67
2019-05-18T18:55:04.376Z,4.78
2019-05-18T18:57:52.971Z,4.78
2019-05-18T19:00:43.191Z,4.92
2019-05-18T19:03:31.708Z,4.90
2019-05-18T19:06:20.045Z,4.30
2019-05-18T19:09:09.057Z,4.87
2019-05-18T19:11:57.652Z,4.72
2019-05-18T19:14:46.494Z,4.80
2019-05-18T19:17:35.091Z,4.58
2019-05-18T19:20:23.923Z,4.85
2019-05-18T19:23:12.635Z,4.87
2019-05-18T19:26:01.113Z,4.40
2019-05-18T19:28:50.200Z,4.47
2019-05-18T19:31:39.280Z,4.35
2019-05-18T19:34:27.884Z,4.28
2019-05-18T19:37:16.721Z,3.95
2019-05-18T19:40:07.469Z,4.58
2019-05-18T19:43:00.081Z,4.75
2019-05-18T19:45:52.084Z,4.35
2019-05-18T19:48:49.797Z,4.67
2019-05-18T19:51:37.990Z,4.62
2019-05-18T19:54:28.830Z,4.28
2019-05-18T19:57:24.396Z,4.53
2019-05-18T20:00:13.240Z,4.22
2019-05-18T20:03:02.012Z,3.87
2019-05-18T20:05:50.656Z,4.20
2019-05-18T20:08:39.344Z,4.35
2019-05-18T20:11:27.857Z,3.92
2019-05-18T20:14:16.260Z,4.28
2019-05-18T20:17:04.908Z,4.10
2019-05-18T20:19:53.644Z,4.08
2019-05-18T20:22:42.557Z,3.83
2019-05-18T20:25:31.229Z,4.00
2019-05-18T20:28:34.121Z,3.85
2019-05-18T20:31:19.793Z,3.87
2019-05-18T20:34:08.418Z,3.62
2019-05-18T20:37:10.169Z,3.83
2019-05-18T20:39:58.655Z,3.92
2019-05-18T20:42:47.952Z,4.12
2019-05-18T20:45:36.795Z,3.80
2019-05-18T20:48:25.548Z,3.42
2019-05-18T20:51:14.053Z,3.87
2019-05-18T20:54:03.103Z,4.08
2019-05-18T20:56:51.815Z,3.77
2019-05-18T20:59:40.312Z,3.55
2019-05-18T21:02:29.085Z,3.45
2019-05-18T21:05:18.082Z,3.67
2019-05-18T21:08:07.020Z,3.70
2019-05-18T21:10:55.364Z,3.60
2019-05-18T21:13:44.443Z,3.42
2019-05-18T21:16:33.146Z,3.67
2019-05-18T21:19:21.416Z,3.72
2019-05-18T21:22:10.289Z,3.45
2019-05-18T21:24:59.068Z,3.75
2019-05-18T21:27:47.657Z,3.67
2019-05-18T21:30:36.509Z,3.60
2019-05-18T21:33:25.094Z,3.72
2019-05-18T21:36:13.936Z,3.72
2019-05-18T21:39:02.779Z,3.65
2019-05-18T21:41:52.054Z,3.60
2019-05-18T21:44:40.767Z,3.50
2019-05-18T21:47:28.880Z,3.62
2019-05-18T21:50:17.634Z,3.72
2019-05-18T21:53:06.081Z,3.92
2019-05-18T21:55:55.784Z,3.70
2019-05-18T21:58:44.407Z,4.05
2019-05-18T22:01:33.247Z,4.17
2019-05-18T22:04:22.521Z,4.05
2019-05-18T22:07:11.414Z,3.87
2019-05-18T22:10:00.649Z,3.58
2019-05-18T22:12:48.781Z,4.05
2019-05-18T22:15:37.682Z,4.30
2019-05-18T22:18:26.036Z,3.70
2019-05-18T22:21:14.702Z,4.10
2019-05-18T22:24:03.253Z,4.15
2019-05-18T22:26:53.040Z,4.10
2019-05-18T22:29:41.649Z,4.17
2019-05-18T22:32:30.723Z,4.20
2019-05-18T22:35:19.289Z,4.03
2019-05-18T22:38:07.915Z,3.92
2019-05-18T22:40:56.155Z,3.83
2019-05-18T22:43:44.611Z,4.40
2019-05-18T22:46:33.448Z,3.95
2019-05-18T22:49:22.291Z,4.33
2019-05-18T22:52:11.129Z,4.25
2019-05-18T22:54:59.479Z,4.42
2019-05-18T22:57:48.065Z,4.28
2019-05-18T23:00:36.679Z,3.72
2019-05-18T23:03:25.502Z,4.30
2019-05-18T23:06:14.275Z,4.55
2019-05-18T23:09:03.175Z,4.37
2019-05-18T23:11:52.156Z,5.30
2019-05-18T23:14:41.018Z,4.40
2019-05-18T23:17:29.525Z,4.87
2019-05-18T23:20:18.446Z,4.60
2019-05-18T23:23:06.883Z,4.33
2019-05-18T23:25:55.726Z,4.22
2019-05-18T23:28:44.148Z,5.05
2019-05-18T23:31:32.670Z,4.90
2019-05-18T23:34:21.502Z,4.40
2019-05-18T23:37:09.851Z,4.53
2019-05-18T23:39:58.516Z,4.58
2019-05-18T23:42:47.536Z,4.45
2019-05-18T23:45:36.062Z,4.42
2019-05-18T23:48:24.962Z,4.50
2019-05-18T23:51:13.717Z,4.53
2019-05-18T23:54:02.301Z,4.65
2019-05-18T23:56:50.720Z,4.55
2019-05-18T23:59:39.591Z,4.40
